createdAt,value
2017-06-19T00:01:55.943Z,7.77
2017-06-19T00:04:23.495Z,7.37
2017-06-19T00:06:51.078Z,6.90
2017-06-19T00:09:18.647Z,7.07
2017-06-19T00:11:46.220Z,7.03
2017-06-19T00:14:13.756Z,7.37
2017-06-19T00:16:41.346Z,7.30
2017-06-19T00:19:09.658Z,7.27
2017-06-19T00:21:37.643Z,7.23
2017-06-19T00:24:05.220Z,7.80
2017-06-19T00:26:32.750Z,6.93
2017-06-19T00:29:00.304Z,7.63
2017-06-19T00:31:27.860Z,8.10
2017-06-19T00:33:55.405Z,8.47
2017-06-19T00:36:23.739Z,8.10
2017-06-19T00:38:51.285Z,8.10
2017-06-19T00:41:18.821Z,7.30
2017-06-19T00:43:46.401Z,8.30
2017-06-19T00:46:13.955Z,8.37
2017-06-19T00:48:41.489Z,8.43
2017-06-19T00:51:09.057Z,7.20
2017-06-19T00:53:36.597Z,7.77
2017-06-19T00:56:04.133Z,7.80
2017-06-19T00:58:31.696Z,7.80
2017-06-19T01:01:00.007Z,7.13
2017-06-19T01:03:27.630Z,6.80
2017-06-19T01:05:55.982Z,7.13
2017-06-19T01:08:23.519Z,7.20
2017-06-19T01:10:51.087Z,7.50
2017-06-19T01:13:18.619Z,7.40
2017-06-19T01:15:46.151Z,6.90
2017-06-19T01:18:14.484Z,6.90
2017-06-19T01:20:42.138Z,6.23
2017-06-19T01:23:09.718Z,7.00
2017-06-19T01:25:37.278Z,6.20
2017-06-19T01:28:04.850Z,6.30
2017-06-19T01:30:32.390Z,6.73
2017-06-19T01:32:59.914Z,7.13
2017-06-19T01:35:27.481Z,6.70
2017-06-19T01:37:55.015Z,7.70
2017-06-19T01:40:22.553Z,7.07
2017-06-19T01:42:50.121Z,7.47
2017-06-19T01:45:18.423Z,7.90
2017-06-19T01:47:46.011Z,7.20
2017-06-19T01:50:13.567Z,7.90
2017-06-19T01:52:41.223Z,8.23
2017-06-19T01:55:08.761Z,8.00
2017-06-19T01:57:36.337Z,7.90
2017-06-19T02:00:03.869Z,7.90
2017-06-19T02:02:31.415Z,7.40
2017-06-19T02:04:59.773Z,8.33
2017-06-19T02:07:27.407Z,8.00
2017-06-19T02:09:54.947Z,8.23
2017-06-19T02:12:22.526Z,7.43
2017-06-19T02:14:50.097Z,7.20
2017-06-19T02:17:17.635Z,7.70
2017-06-19T02:19:45.210Z,7.83
2017-06-19T02:22:12.753Z,7.77
2017-06-19T02:24:40.290Z,8.00
2017-06-19T02:27:07.846Z,7.83
2017-06-19T02:29:35.442Z,7.90
2017-06-19T02:32:03.001Z,8.00
2017-06-19T02:34:30.540Z,7.83
2017-06-19T02:36:58.080Z,7.60
2017-06-19T02:39:25.658Z,8.03
2017-06-19T02:41:53.190Z,7.30
2017-06-19T02:44:21.490Z,8.00
2017-06-19T02:46:49.062Z,7.57
2017-06-19T02:49:16.593Z,7.67
2017-06-19T02:51:44.128Z,8.90
2017-06-19T02:54:12.453Z,8.40
2017-06-19T02:56:39.993Z,8.83
2017-06-19T02:59:07.545Z,8.40
2017-06-19T03:01:35.234Z,8.93
2017-06-19T03:04:02.775Z,9.30
2017-06-19T03:06:30.306Z,8.60
2017-06-19T03:08:58.647Z,9.20
2017-06-19T03:11:26.203Z,8.50
2017-06-19T03:13:53.743Z,9.67
2017-06-19T03:16:21.323Z,9.20
2017-06-19T03:18:48.867Z,18.80
2017-06-19T03:21:16.401Z,8.43
2017-06-19T03:23:43.972Z,7.70
2017-06-19T03:26:11.519Z,7.80
2017-06-19T03:28:39.058Z,8.10
2017-06-19T03:31:07.398Z,8.43
2017-06-19T03:33:34.934Z,8.53
2017-06-19T03:36:02.462Z,9.63
2017-06-19T03:38:30.026Z,8.93
2017-06-19T03:40:57.565Z,10.03
2017-06-19T03:43:25.893Z,9.87
2017-06-19T03:45:53.466Z,9.80
2017-06-19T03:48:21.021Z,10.27
2017-06-19T03:50:48.553Z,10.60
2017-06-19T03:53:16.121Z,10.20
2017-06-19T03:55:43.683Z,9.67
2017-06-19T03:58:11.221Z,9.60
2017-06-19T04:00:38.807Z,10.40
2017-06-19T04:03:06.349Z,10.73
2017-06-19T04:05:33.896Z,10.97
2017-06-19T04:08:01.459Z,10.70
2017-06-19T04:10:29.035Z,10.17
2017-06-19T04:12:56.579Z,10.67
2017-06-19T04:15:24.107Z,10.77
2017-06-19T04:17:52.435Z,11.13
2017-06-19T04:20:20.113Z,10.20
2017-06-19T04:22:48.483Z,11.17
2017-06-19T04:25:16.029Z,11.60
2017-06-19T04:27:43.578Z,10.73
2017-06-19T04:30:11.136Z,9.73
2017-06-19T04:32:38.674Z,9.50
2017-06-19T04:35:06.212Z,9.70
2017-06-19T04:37:33.954Z,11.70
2017-06-19T04:40:01.492Z,10.83
2017-06-19T04:42:29.068Z,9.93
2017-06-19T04:44:56.622Z,9.47
2017-06-19T04:47:24.161Z,8.43
2017-06-19T04:49:51.721Z,8.87
2017-06-19T04:52:19.248Z,8.00
2017-06-19T04:54:46.788Z,7.80
2017-06-19T04:57:15.139Z,8.20
2017-06-19T04:59:42.671Z,7.07
2017-06-19T05:02:10.208Z,6.60
2017-06-19T05:04:37.784Z,6.20
2017-06-19T05:07:05.371Z,7.20
2017-06-19T05:09:33.013Z,6.37
2017-06-19T05:12:00.567Z,6.30
2017-06-19T05:14:28.129Z,7.13
2017-06-19T05:16:55.661Z,6.40
2017-06-19T05:19:23.209Z,6.60
2017-06-19T05:21:51.539Z,8.50
2017-06-19T05:24:19.075Z,6.60
2017-06-19T05:26:46.658Z,6.10
2017-06-19T05:29:14.218Z,6.27
2017-06-19T05:31:41.778Z,6.10
2017-06-19T05:34:09.422Z,5.90
2017-06-19T05:36:37.086Z,7.40
2017-06-19T05:39:04.618Z,6.97
2017-06-19T05:41:32.189Z,5.50
2017-06-19T05:43:59.722Z,5.90
2017-06-19T05:46:28.038Z,6.00
2017-06-19T05:48:55.597Z,6.00
2017-06-19T05:51:23.135Z,5.60
2017-06-19T05:53:50.678Z,6.73
2017-06-19T05:56:19.094Z,5.93
2017-06-19T05:58:46.670Z,6.77
2017-06-19T06:01:14.242Z,6.83
2017-06-19T06:03:41.769Z,6.00
2017-06-19T06:06:09.305Z,6.20
2017-06-19T06:08:36.867Z,6.23
2017-06-19T06:11:04.401Z,5.50
2017-06-19T06:13:32.719Z,5.00
2017-06-19T06:16:00.275Z,4.47
2017-06-19T06:18:27.860Z,4.60
2017-06-19T06:20:55.503Z,4.43
2017-06-19T06:23:23.185Z,4.07
2017-06-19T06:25:50.719Z,3.90
2017-06-19T06:28:18.254Z,4.07
2017-06-19T06:30:45.815Z,4.20
2017-06-19T06:33:13.346Z,4.57
2017-06-19T06:35:40.881Z,3.33
2017-06-19T06:38:08.638Z,3.27
2017-06-19T06:40:36.194Z,4.07
2017-06-19T06:43:03.725Z,3.70
2017-06-19T06:45:31.284Z,4.03
2017-06-19T06:47:58.830Z,3.60
2017-06-19T06:50:26.398Z,3.70
2017-06-19T06:52:54.004Z,3.47
2017-06-19T06:55:21.643Z,3.70
2017-06-19T06:57:49.236Z,3.50
2017-06-19T07:00:16.767Z,4.53
2017-06-19T07:02:44.305Z,3.70
2017-06-19T07:05:11.868Z,4.27
2017-06-19T07:07:39.421Z,4.20
2017-06-19T07:10:06.968Z,3.63
2017-06-19T07:12:34.530Z,3.73
2017-06-19T07:15:02.079Z,3.43
2017-06-19T07:17:30.380Z,3.50
2017-06-19T07:19:57.961Z,3.57
2017-06-19T07:22:25.511Z,4.27
2017-06-19T07:24:53.043Z,4.43
2017-06-19T07:27:20.603Z,3.47
2017-06-19T07:29:48.193Z,3.20
2017-06-19T07:32:15.760Z,3.63
2017-06-19T07:34:43.318Z,3.67
2017-06-19T07:37:10.848Z,3.07
2017-06-19T07:39:38.412Z,3.60
2017-06-19T07:42:05.986Z,3.20
2017-06-19T07:44:33.556Z,3.67
2017-06-19T07:47:01.125Z,3.43
2017-06-19T07:49:28.662Z,3.40
2017-06-19T07:51:56.186Z,3.30
2017-06-19T07:54:23.805Z,3.83
2017-06-19T07:56:51.450Z,3.90
2017-06-19T07:59:19.333Z,3.33
2017-06-19T08:01:46.905Z,2.70
2017-06-19T08:04:14.547Z,2.90
2017-06-19T08:06:42.086Z,4.27
2017-06-19T08:09:09.668Z,2.77
2017-06-19T08:11:37.200Z,3.13
2017-06-19T08:14:04.761Z,3.10
2017-06-19T08:16:32.296Z,2.90
2017-06-19T08:18:59.830Z,3.07
2017-06-19T08:21:33.893Z,3.37
2017-06-19T08:24:01.471Z,2.40
2017-06-19T08:26:29.003Z,2.67
2017-06-19T08:28:56.579Z,3.17
2017-06-19T08:31:24.123Z,2.80
2017-06-19T08:33:51.657Z,3.23
2017-06-19T08:36:19.231Z,3.10
2017-06-19T08:38:46.767Z,2.70
2017-06-19T08:41:15.058Z,2.57
2017-06-19T08:43:42.654Z,2.77
2017-06-19T08:46:10.200Z,2.90
2017-06-19T08:48:37.736Z,2.50
2017-06-19T08:51:05.430Z,2.47
2017-06-19T08:53:32.963Z,2.57
2017-06-19T08:56:00.498Z,2.67
2017-06-19T08:58:29.132Z,2.73
2017-06-19T09:00:56.683Z,2.30
2017-06-19T09:03:24.218Z,2.70
2017-06-19T09:05:51.790Z,2.80
2017-06-19T09:08:19.323Z,2.73
2017-06-19T09:10:46.937Z,2.90
2017-06-19T09:13:14.489Z,2.30
2017-06-19T09:15:42.055Z,2.57
2017-06-19T09:18:09.591Z,2.70
2017-06-19T09:20:37.127Z,2.20
2017-06-19T09:23:04.703Z,2.17
2017-06-19T09:25:32.237Z,2.97
2017-06-19T09:28:00.528Z,2.60
2017-06-19T09:30:28.125Z,2.30
2017-06-19T09:32:55.689Z,2.63
2017-06-19T09:35:23.243Z,2.57
2017-06-19T09:37:50.773Z,2.00
2017-06-19T09:40:18.348Z,2.67
2017-06-19T09:42:45.906Z,2.30
2017-06-19T09:45:13.442Z,2.73
2017-06-19T09:47:41.012Z,2.50
2017-06-19T09:50:08.554Z,2.57
2017-06-19T09:52:36.102Z,2.60
2017-06-19T09:55:03.670Z,2.50
2017-06-19T09:57:31.210Z,2.40
2017-06-19T09:59:59.514Z,2.50
2017-06-19T10:02:27.120Z,2.50
2017-06-19T10:04:54.656Z,2.57
2017-06-19T10:07:22.181Z,2.80
2017-06-19T10:09:49.749Z,2.30
2017-06-19T10:12:17.281Z,2.40
2017-06-19T10:14:44.813Z,2.77
2017-06-19T10:17:12.373Z,2.70
2017-06-19T10:19:40.013Z,13.80
2017-06-19T10:22:07.545Z,4.70
2017-06-19T10:24:35.147Z,2.40
2017-06-19T10:27:03.500Z,2.93
2017-06-19T10:29:31.065Z,2.30
2017-06-19T10:31:58.619Z,2.50
2017-06-19T10:34:26.151Z,2.33
2017-06-19T10:36:54.478Z,3.13
2017-06-19T10:39:22.004Z,2.10
2017-06-19T10:41:49.687Z,2.40
2017-06-19T10:44:17.254Z,2.97
2017-06-19T10:46:44.824Z,2.10
2017-06-19T10:49:12.392Z,2.20
2017-06-19T10:51:40.022Z,2.40
2017-06-19T10:54:07.594Z,2.10
2017-06-19T10:56:35.178Z,2.13
2017-06-19T10:59:02.710Z,2.73
2017-06-19T11:01:30.252Z,4.73
2017-06-19T11:03:57.820Z,5.10
2017-06-19T11:06:25.359Z,26.30
2017-06-19T11:08:52.903Z,2.20
2017-06-19T11:11:21.231Z,2.40
2017-06-19T11:13:48.774Z,2.30
2017-06-19T11:16:16.306Z,2.10
2017-06-19T11:18:43.905Z,2.10
2017-06-19T11:21:11.473Z,1.73
2017-06-19T11:23:39.051Z,2.07
2017-06-19T11:26:06.590Z,2.20
2017-06-19T11:28:34.127Z,2.33
2017-06-19T11:31:01.700Z,2.53
2017-06-19T11:33:29.299Z,2.07
2017-06-19T11:35:57.618Z,10.20
2017-06-19T11:38:25.150Z,7.57
2017-06-19T11:40:53.467Z,2.27
2017-06-19T11:43:20.992Z,2.10
2017-06-19T11:45:48.521Z,2.07
2017-06-19T11:48:16.846Z,2.00
2017-06-19T11:50:44.376Z,1.87
2017-06-19T11:53:11.934Z,1.83
2017-06-19T11:55:40.235Z,2.00
2017-06-19T11:58:07.808Z,2.00
2017-06-19T12:00:35.346Z,1.70
2017-06-19T12:03:03.224Z,1.60
2017-06-19T12:05:30.784Z,1.70
2017-06-19T12:07:58.675Z,1.92
2017-06-19T12:10:26.205Z,1.73
2017-06-19T12:12:53.762Z,1.60
2017-06-19T12:15:21.350Z,1.65
2017-06-19T12:17:48.897Z,1.73
2017-06-19T12:20:16.440Z,1.73
2017-06-19T12:22:44.015Z,1.50
2017-06-19T12:25:11.678Z,1.80
2017-06-19T12:27:39.213Z,1.62
2017-06-19T12:30:06.753Z,1.75
2017-06-19T12:32:35.086Z,1.52
2017-06-19T12:35:02.622Z,1.67
2017-06-19T12:37:30.159Z,1.50
2017-06-19T12:39:57.719Z,1.70
2017-06-19T12:42:25.251Z,1.50
2017-06-19T12:44:53.691Z,1.37
2017-06-19T12:47:21.227Z,1.40
2017-06-19T12:49:48.762Z,1.40
2017-06-19T12:52:17.122Z,1.50
2017-06-19T12:54:44.648Z,1.60
2017-06-19T12:57:12.178Z,1.75
2017-06-19T12:59:39.762Z,1.60
2017-06-19T13:02:07.298Z,1.60
2017-06-19T13:04:34.838Z,1.33
2017-06-19T13:07:03.154Z,1.48
2017-06-19T13:09:30.690Z,1.80
2017-06-19T13:11:58.252Z,1.75
2017-06-19T13:14:25.778Z,1.80
2017-06-19T13:16:53.315Z,1.62
2017-06-19T13:19:20.910Z,1.58
2017-06-19T13:21:49.208Z,1.95
2017-06-19T13:24:16.743Z,1.95
2017-06-19T13:26:45.069Z,1.70
2017-06-19T13:29:12.611Z,1.42
2017-06-19T13:31:40.283Z,1.80
2017-06-19T13:34:07.818Z,1.42
2017-06-19T13:36:35.629Z,1.80
2017-06-19T13:39:03.178Z,1.87
2017-06-19T13:41:30.747Z,1.55
2017-06-19T13:43:58.287Z,1.58
2017-06-19T13:46:25.817Z,1.70
2017-06-19T13:48:53.394Z,1.70
2017-06-19T13:51:20.926Z,1.70
2017-06-19T13:53:48.466Z,1.40
2017-06-19T13:56:17.570Z,1.80
2017-06-19T13:58:45.106Z,1.70
2017-06-19T14:01:12.642Z,1.60
2017-06-19T14:03:40.218Z,1.92
2017-06-19T14:06:07.748Z,2.03
2017-06-19T14:08:35.286Z,1.98
2017-06-19T14:11:02.849Z,1.60
2017-06-19T14:13:30.390Z,1.33
2017-06-19T14:15:58.806Z,1.50
2017-06-19T14:18:26.368Z,1.60
2017-06-19T14:20:53.897Z,1.80
2017-06-19T14:23:21.430Z,1.50
2017-06-19T14:25:49.749Z,1.62
2017-06-19T14:28:17.281Z,1.73
2017-06-19T14:30:45.602Z,1.60
2017-06-19T14:33:13.136Z,1.65
2017-06-19T14:35:40.667Z,1.40
2017-06-19T14:38:08.237Z,1.40
2017-06-19T14:40:35.775Z,1.45
2017-06-19T14:43:03.307Z,1.77
2017-06-19T14:45:30.869Z,1.58
2017-06-19T14:47:58.453Z,2.90
2017-06-19T14:50:26.013Z,1.55
2017-06-19T14:52:53.591Z,1.35
2017-06-19T14:55:21.123Z,1.60
2017-06-19T14:57:48.666Z,1.73
2017-06-19T15:00:16.238Z,1.40
2017-06-19T15:02:43.766Z,1.77
2017-06-19T15:05:11.302Z,1.40
2017-06-19T15:07:38.862Z,1.70
2017-06-19T15:10:06.407Z,1.37
2017-06-19T15:12:33.944Z,1.70
2017-06-19T15:15:02.376Z,1.65
2017-06-19T15:17:29.906Z,1.30
2017-06-19T15:19:57.451Z,1.50
2017-06-19T15:22:37.817Z,1.50
2017-06-19T15:25:05.366Z,1.35
2017-06-19T15:27:32.930Z,1.70
2017-06-19T15:30:00.466Z,1.30
2017-06-19T15:32:28.036Z,1.40
2017-06-19T15:34:56.366Z,1.30
2017-06-19T15:37:23.924Z,1.55
2017-06-19T15:39:51.449Z,1.58
2017-06-19T15:42:19.780Z,1.60
2017-06-19T15:44:47.341Z,1.60
2017-06-19T15:47:14.905Z,1.30
2017-06-19T15:49:42.479Z,1.55
2017-06-19T15:52:10.009Z,1.75
2017-06-19T15:54:37.559Z,3.87
2017-06-19T15:57:05.120Z,1.50
2017-06-19T15:59:32.666Z,1.52
2017-06-19T16:02:00.203Z,5.85
2017-06-19T16:04:27.845Z,1.45
2017-06-19T16:06:55.375Z,1.35
2017-06-19T16:09:23.015Z,1.12
2017-06-19T16:12:06.292Z,1.42
2017-06-19T16:14:34.590Z,1.67
2017-06-19T16:17:02.152Z,1.40
2017-06-19T16:19:29.707Z,1.40
2017-06-19T16:21:57.262Z,1.52
2017-06-19T16:24:24.853Z,2.78
2017-06-19T16:26:52.402Z,1.52
2017-06-19T16:29:19.968Z,1.80
2017-06-19T16:31:47.636Z,1.10
2017-06-19T16:34:15.165Z,1.40
2017-06-19T16:36:42.699Z,1.40
2017-06-19T16:39:10.292Z,1.57
2017-06-19T16:41:37.829Z,1.50
2017-06-19T16:44:06.143Z,1.47
2017-06-19T16:46:33.711Z,1.60
2017-06-19T16:49:01.265Z,1.40
2017-06-19T16:51:28.813Z,1.83
2017-06-19T16:53:56.385Z,1.83
2017-06-19T16:56:23.910Z,1.67
2017-06-19T16:58:52.273Z,1.47
2017-06-19T17:01:20.049Z,1.77
2017-06-19T17:03:48.465Z,2.00
2017-06-19T17:06:16.127Z,2.13
2017-06-19T17:08:43.662Z,1.80
2017-06-19T17:11:11.217Z,2.50
2017-06-19T17:13:38.776Z,2.07
2017-06-19T17:16:06.366Z,1.90
2017-06-19T17:18:33.901Z,2.20
2017-06-19T17:21:01.464Z,1.60
2017-06-19T17:23:29.040Z,2.50
2017-06-19T17:25:56.610Z,1.83
2017-06-19T17:28:24.141Z,2.50
2017-06-19T17:30:51.695Z,3.00
2017-06-19T17:33:19.273Z,2.70
2017-06-19T17:35:46.816Z,2.07
2017-06-19T17:38:14.357Z,2.87
2017-06-19T17:40:42.681Z,1.80
2017-06-19T17:43:10.245Z,2.30
2017-06-19T17:45:37.785Z,2.00
2017-06-19T17:48:05.451Z,29.80
2017-06-19T17:50:33.039Z,3.60
2017-06-19T17:53:00.569Z,2.17
2017-06-19T17:55:28.128Z,1.60
2017-06-19T17:57:55.671Z,1.93
2017-06-19T18:00:23.258Z,2.00
2017-06-19T18:02:50.800Z,2.50
2017-06-19T18:05:18.342Z,2.03
2017-06-19T18:07:45.938Z,2.00
2017-06-19T18:10:13.478Z,2.80
2017-06-19T18:12:41.028Z,1.87
2017-06-19T18:15:08.601Z,1.93
2017-06-19T18:17:36.126Z,1.50
2017-06-19T18:20:03.662Z,1.40
2017-06-19T18:22:31.986Z,1.77
2017-06-19T18:24:59.530Z,1.83
2017-06-19T18:27:27.089Z,1.80
2017-06-19T18:29:54.623Z,1.57
2017-06-19T18:32:22.171Z,1.87
2017-06-19T18:34:50.510Z,2.17
2017-06-19T18:37:18.046Z,2.20
2017-06-19T18:39:45.575Z,1.63
2017-06-19T18:42:13.135Z,1.80
2017-06-19T18:44:40.665Z,2.07
2017-06-19T18:47:08.205Z,1.90
2017-06-19T18:49:35.770Z,1.97
2017-06-19T18:52:03.321Z,2.27
2017-06-19T18:54:30.855Z,2.13
2017-06-19T18:56:58.445Z,2.67
2017-06-19T18:59:25.985Z,2.70
2017-06-19T19:01:53.549Z,2.20
2017-06-19T19:04:21.115Z,2.30
2017-06-19T19:06:48.643Z,3.20
2017-06-19T19:09:16.174Z,3.07
2017-06-19T19:11:44.599Z,2.70
2017-06-19T19:14:12.139Z,3.37
2017-06-19T19:16:39.726Z,11.40
2017-06-19T19:19:07.308Z,4.10
2017-06-19T19:21:34.864Z,3.85
2017-06-19T19:24:02.415Z,4.10
2017-06-19T19:26:30.044Z,5.67
2017-06-19T19:28:57.707Z,12.43
2017-06-19T19:31:25.282Z,9.10
2017-06-19T19:33:53.139Z,4.53
2017-06-19T19:36:20.690Z,3.67
2017-06-19T19:38:48.230Z,3.83
2017-06-19T19:41:15.792Z,3.73
2017-06-19T19:43:43.338Z,4.30
2017-06-19T19:46:10.865Z,3.23
2017-06-19T19:48:38.419Z,3.83
2017-06-19T19:51:05.987Z,3.40
2017-06-19T19:53:33.565Z,3.30
2017-06-19T19:56:02.021Z,3.30
2017-06-19T19:58:29.843Z,12.87
2017-06-19T20:00:57.575Z,13.50
2017-06-19T20:03:25.462Z,6.80
2017-06-19T20:05:53.439Z,3.37
2017-06-19T20:08:21.305Z,4.07
2017-06-19T20:10:49.273Z,5.10
2017-06-19T20:13:17.138Z,4.33
2017-06-19T20:15:45.004Z,4.30
2017-06-19T20:18:12.678Z,3.63
2017-06-19T20:20:40.403Z,5.07
2017-06-19T20:23:08.819Z,3.90
2017-06-19T20:25:36.466Z,3.87
2017-06-19T20:28:04.006Z,3.67
2017-06-19T20:30:31.544Z,3.63
2017-06-19T20:32:59.878Z,3.00
2017-06-19T20:35:27.418Z,3.40
2017-06-19T20:37:55.109Z,3.10
2017-06-19T20:40:22.765Z,3.07
2017-06-19T20:42:50.305Z,2.90
2017-06-19T20:45:17.860Z,3.63
2017-06-19T20:47:45.429Z,4.50
2017-06-19T20:50:12.961Z,5.30
2017-06-19T20:52:40.501Z,3.50
2017-06-19T20:55:08.056Z,4.23
2017-06-19T20:57:36.395Z,4.23
2017-06-19T21:00:03.929Z,3.60
2017-06-19T21:02:31.517Z,3.70
2017-06-19T21:04:59.079Z,3.23
2017-06-19T21:07:26.705Z,3.37
2017-06-19T21:09:54.285Z,27.73
2017-06-19T21:12:21.855Z,20.40
2017-06-19T21:14:49.391Z,3.40
2017-06-19T21:17:16.919Z,2.63
2017-06-19T21:19:44.598Z,3.10
2017-06-19T21:22:12.174Z,3.23
2017-06-19T21:24:39.736Z,3.70
2017-06-19T21:27:07.316Z,3.50
2017-06-19T21:29:34.856Z,3.60
2017-06-19T21:32:02.382Z,3.10
2017-06-19T21:34:29.950Z,3.70
2017-06-19T21:36:57.478Z,3.40
2017-06-19T21:39:25.790Z,3.57
2017-06-19T21:41:53.359Z,2.73
2017-06-19T21:44:20.893Z,2.70
2017-06-19T21:46:48.456Z,3.37
2017-06-19T21:49:16.001Z,3.67
2017-06-19T21:51:43.550Z,3.33
2017-06-19T21:54:11.117Z,4.27
2017-06-19T21:56:38.655Z,3.30
2017-06-19T21:59:06.989Z,4.00
2017-06-19T22:01:34.551Z,4.00
2017-06-19T22:04:02.079Z,3.90
2017-06-19T22:06:29.615Z,3.47
2017-06-19T22:08:57.935Z,4.07
2017-06-19T22:11:25.813Z,4.57
2017-06-19T22:13:53.458Z,3.47
2017-06-19T22:16:21.019Z,4.30
2017-06-19T22:18:48.583Z,3.27
2017-06-19T22:21:21.727Z,5.00
2017-06-19T22:23:50.060Z,4.27
2017-06-19T22:26:17.596Z,4.00
2017-06-19T22:28:45.130Z,4.00
2017-06-19T22:31:12.698Z,3.87
2017-06-19T22:33:41.050Z,4.30
2017-06-19T22:36:09.346Z,4.40
2017-06-19T22:38:36.940Z,4.20
2017-06-19T22:41:04.540Z,4.30
2017-06-19T22:43:32.889Z,3.80
2017-06-19T22:46:00.527Z,4.27
2017-06-19T22:48:28.093Z,4.07
2017-06-19T22:50:55.639Z,4.67
2017-06-19T22:53:23.185Z,5.03
2017-06-19T22:55:50.743Z,4.30
2017-06-19T22:58:18.311Z,4.13
2017-06-19T23:00:45.846Z,4.10
2017-06-19T23:03:13.399Z,3.80
2017-06-19T23:05:41.735Z,4.27
2017-06-19T23:08:09.276Z,4.03
2017-06-19T23:10:36.831Z,4.00
2017-06-19T23:13:04.409Z,4.07
2017-06-19T23:15:32.068Z,4.90
2017-06-19T23:17:59.606Z,4.03
2017-06-19T23:20:27.144Z,4.63
2017-06-19T23:22:54.703Z,4.20
2017-06-19T23:25:22.235Z,4.30
2017-06-19T23:27:49.804Z,4.10
2017-06-19T23:30:18.132Z,4.10
2017-06-19T23:32:45.754Z,3.90
2017-06-19T23:35:14.047Z,3.70
2017-06-19T23:37:41.582Z,4.80
2017-06-19T23:40:10.002Z,4.00
2017-06-19T23:42:37.538Z,4.67
2017-06-19T23:45:05.098Z,4.30
2017-06-19T23:47:32.634Z,4.00
2017-06-19T23:50:00.965Z,4.63
2017-06-19T23:52:28.503Z,4.10
2017-06-19T23:54:56.065Z,3.60
2017-06-19T23:57:23.597Z,3.53
2017-06-19T23:59:51.908Z,3.80
